• Join FlightAware (Why Join?)
  • Login
  • US Flag 
06:56PM EDT


 

Airport Tracker/Info


-or-


 

Live Flight TrackerFlight Track Log ✈ SKW3460 ✈ 22-Apr-2013 ✈ KPDX - KONT

Flight Track Log - Related Links

Times and Time Zones

All times are in EDT time to prevent confusion due to time zone crossing. See the SKW3460 flight status page for this flight to view local times or setup timezone preferences in your user account.

Time Position Orientation Groundspeed Altitude Reporting Facility
EDT Latitude Longitude Course Direction KTS MPH feet Rate Location/Type
09:45AM 45.5942 -122.5978 295° West 146 168 500  Level Seattle Center
09:46AM 45.5994 -122.6142 295° West 146 168 1,200 1,380 Climbing Seattle Center
09:46AM 45.6108 -122.6458 297° West 180 207 1,800 1,800 Climbing Seattle Center
09:47AM 45.6231 -122.6878 293° West 225 259 3,000 2,460 Climbing Seattle Center
09:47AM 45.6367 -122.7228 299° West 207 238 4,300 3,300 Climbing Seattle Center
09:48AM 45.6542 -122.7678 299° West 240 276 6,400 3,300 Climbing Seattle Center
09:48AM 45.6550 -122.8064 272° West 231 266 7,700 2,040 Climbing Seattle Center
09:49AM 45.5897 -122.7911 171° South 259 298 9,800 1,980 Climbing Seattle Center
09:50AM 45.5233 -122.7239 145° Southeast 287 330 11,700 1,920 Climbing Seattle Center
09:51AM 45.4564 -122.6383 138° Southeast 316 364 13,700 2,160 Climbing Seattle Center
09:52AM 45.3681 -122.5278 139° Southeast 346 398 16,100 1,980 Climbing Seattle Center
09:53AM 45.2869 -122.4292 139° Southeast 375 432 17,800 1,320 Climbing Seattle Center
09:54AM 45.2033 -122.3233 138° Southeast 397 457 18,800 1,260 Climbing Seattle Center
09:55AM 45.1158 -122.2167 139° Southeast 410 472 20,400 1,500 Climbing Seattle Center
09:56AM 45.0178 -122.1208 145° Southeast 431 496 21,900 1,320 Climbing Seattle Center
09:57AM 44.9039 -122.0469 155° Southeast 445 512 23,100 1,200 Climbing Seattle Center
09:58AM 44.7989 -121.9733 154° Southeast 433 498 24,400 1,140 Climbing Seattle Center
09:59AM 44.6828 -121.8983 155° Southeast 437 503 25,500 960 Climbing Seattle Center
10:00AM 44.5672 -121.8231 155° Southeast 451 519 26,400 960 Climbing Seattle Center
10:01AM 44.4511 -121.7467 155° Southeast 460 529 27,500 900 Climbing Seattle Center
10:02AM 44.3336 -121.6683 155° Southeast 466 536 28,300 600 Climbing Seattle Center
10:03AM 44.2139 -121.5914 155° Southeast 475 547 28,800 480 Climbing Seattle Center
10:04AM 44.0925 -121.5133 155° Southeast 481 554 29,300 480 Climbing Seattle Center
10:05AM 43.9686 -121.4325 155° Southeast 489 563 29,800 480 Climbing Seattle Center
10:06AM 43.8431 -121.3514 155° Southeast 497 572 30,300 480 Climbing Seattle Center
10:07AM 43.7103 -121.2675 155° Southeast 499 574 30,800 480 Climbing Seattle Center
10:08AM 43.5833 -121.1875 155° Southeast 501 577 31,300 480 Climbing Seattle Center
10:10AM 43.4583 -121.1078 155° Southeast 497 572 31,800 480 Climbing Seattle Center
10:11AM 43.3322 -121.0283 155° Southeast 498 573 32,300 540 Climbing Seattle Center
10:12AM 43.2067 -120.9503 156° South 496 571 32,900 300 Climbing Seattle Center
10:13AM 43.0747 -120.9064 166° South 498 573 33,000  Climbing Seattle Center
10:14AM 42.9389 -120.8725 170° South 493 567 33,000  Level Seattle Center
10:15AM 42.8031 -120.8408 170° South 495 570 33,000  Level Seattle Center
10:16AM 42.6669 -120.8083 170° South 497 572 33,000  Level Seattle Center
10:17AM 42.5289 -120.7744 170° South 501 577 33,000  Level Seattle Center
10:18AM 42.3911 -120.7414 170° South 501 577 33,000  Level Seattle Center
10:19AM 42.2533 -120.7089 170° South 502 578 33,000  Level Seattle Center
10:20AM 42.1150 -120.6744 170° South 502 578 33,000  Level Seattle Center
10:21AM 41.9781 -120.6428 170° South 499 574 33,000  Level Seattle Center
10:22AM 41.8400 -120.6117 170° South 500 575 33,000  Level Seattle Center
10:23AM 41.7033 -120.5789 170° South 498 573 33,000  Level Seattle Center
10:24AM 41.5678 -120.5458 170° South 494 568 33,000  Level Seattle Center
10:25AM 41.4047 -120.5069 170° South 495 570 33,000  Level Seattle Center
10:26AM 41.2683 -120.4758 170° South 494 568 33,000  Level Seattle Center
10:27AM 41.1319 -120.4439 170° South 497 572 33,000  Level Seattle Center
10:28AM 40.9975 -120.4064 168° South 495 570 33,000  Level Seattle Center
10:29AM 40.8619 -120.3617 166° South 499 574 33,000  Level Seattle Center
10:30AM 40.7272 -120.3181 166° South 497 572 33,000  Level Seattle Center
10:31AM 40.5942 -120.2753 166° South 494 568 33,000  Level Seattle Center
10:31AM 40.5222 -120.2522 166° South 497 572 33,000  Level Oakland Center
10:32AM 40.3886 -120.2094 166° South 496 571 33,000  Level Oakland Center
10:33AM 40.3347 -120.1928 167° South 494 568 33,000  Level Seattle Center
10:33AM 40.2556 -120.1683 167° South 492 566 33,000  Level Oakland Center
10:34AM 40.1225 -120.1250 166° South 492 566 33,000  Level Oakland Center
10:35AM 39.9628 -120.0750 167° South 495 570 33,000  Level Oakland Center
10:36AM 39.8317 -120.0322 166° South 491 565 33,000  Level Oakland Center
10:37AM 39.7008 -119.9917 167° South 486 559 33,000  Level Oakland Center
10:38AM 39.5706 -119.9503 166° South 484 557 33,000  Level Oakland Center
10:39AM 39.4372 -119.9100 167° South 491 565 33,000  Level Oakland Center
10:41AM 39.3061 -119.8692 166° South 490 564 33,000  Level Oakland Center
10:42AM 39.1756 -119.8283 166° South 487 560 33,000  Level Oakland Center
10:43AM 39.0458 -119.7886 167° South 481 554 33,000  Level Oakland Center
10:44AM 38.9139 -119.7483 167° South 488 562 33,000  Level Oakland Center
10:45AM 38.7603 -119.7006 166° South 478 550 33,000  Level Oakland Center
10:46AM 38.6314 -119.6606 166° South 478 550 33,000  Level Oakland Center
10:47AM 38.5022 -119.6231 167° South 477 549 33,000  Level Oakland Center
10:48AM 38.3858 -119.5872 166° South 475 547 33,000  Level Oakland Center
10:49AM 38.2528 -119.5464 166° South 473 544 33,000  Level Oakland Center
10:50AM 38.1297 -119.5103 167° South 472 543 33,000  Level Oakland Center
10:51AM 38.0031 -119.4711 166° South 466 536 33,000  Level Oakland Center
10:52AM 37.8469 -119.4264 167° South 472 543 33,000  Level Oakland Center
10:53AM 37.7192 -119.3900 167° South 469 540 33,000 -60 Level Oakland Center
10:54AM 37.5956 -119.3558 168° South 468 539 32,900  Descending Oakland Center
10:55AM 37.4683 -119.3189 167° South 467 537 33,000  Climbing Oakland Center
10:56AM 37.3417 -119.2808 167° South 466 536 33,000  Level Oakland Center
10:57AM 37.2147 -119.2436 167° South 464 534 33,000  Level Oakland Center
10:58AM 37.0886 -119.2058 167° South 466 536 33,000  Level Oakland Center
10:59AM 36.9628 -119.1675 166° South 463 533 33,000  Level Oakland Center
11:00AM 36.8361 -119.1314 167° South 464 534 33,000  Level Oakland Center
11:01AM 36.7100 -119.0947 167° South 465 535 33,000  Level Oakland Center
11:02AM 36.5589 -119.0503 167° South 465 535 33,000  Level Oakland Center
11:03AM 36.4322 -119.0136 167° South 466 536 33,000  Level Oakland Center
11:04AM 36.3064 -118.9778 167° South 464 534 33,000  Level Oakland Center
11:05AM 36.1794 -118.9433 168° South 465 535 33,000  Level Oakland Center
11:06AM 36.0544 -118.9072 167° South 461 531 33,000  Level Oakland Center
11:07AM 35.9283 -118.8733 168° South 463 533 33,000 -60 Level Oakland Center
11:08AM 35.8039 -118.8381 167° South 460 529 32,900  Descending Oakland Center
11:09AM 35.6778 -118.8019 167° South 463 533 33,000  Climbing Oakland Center
11:10AM 35.5783 -118.7728 167° South 457 526 33,000 -240 Level Los Angeles Center
11:11AM 35.4522 -118.7392 168° South 460 529 32,600 -780 Descending Los Angeles Center
11:12AM 35.3272 -118.7033 167° South 461 531 31,500 -1,020 Descending Los Angeles Center
11:13AM 35.2033 -118.6683 167° South 459 528 30,500 -1,020 Descending Los Angeles Center
11:14AM 35.0772 -118.6356 168° South 459 528 29,500 -1,020 Descending Los Angeles Center
11:15AM 34.9664 -118.5608 151° Southeast 475 547 28,500 -1,020 Descending Los Angeles Center
11:16AM 34.8728 -118.4144 128° Southeast 470 541 27,400 -1,260 Descending Los Angeles Center
11:17AM 34.7925 -118.2967 130° Southeast 460 529 25,900 -2,280 Descending Los Angeles Center
11:18AM 34.7128 -118.1839 131° Southeast 448 516 22,800 -2,760 Descending Los Angeles Center
11:19AM 34.6372 -118.0728 130° Southeast 431 496 20,200 -1,920 Descending Los Angeles Center
11:20AM 34.5803 -117.9550 120° Southeast 411 473 18,900 -1,860 Descending Los Angeles Center
11:21AM 34.5144 -117.8114 119° Southeast 408 470 16,400 -2,220 Descending Los Angeles Center
11:22AM 34.4619 -117.6958 119° Southeast 396 456 14,400 -1,260 Descending Los Angeles Center
11:23AM 34.4114 -117.5886 120° Southeast 372 428 13,800 -720 Descending Los Angeles Center
11:24AM 34.3658 -117.4858 118° Southeast 307 353 13,000 -1,080 Descending Los Angeles Center
11:25AM 34.3306 -117.4103 119° Southeast 266 306 11,600 -1,440 Descending Los Angeles Center
11:26AM 34.2872 -117.3394 127° Southeast 278 320 10,100 -1,500 Descending Los Angeles Center
11:27AM 34.2231 -117.3194 166° South 245 282 8,500 -1,080 Descending Los Angeles Center
11:28AM 34.1553 -117.2981 165° South 245 282 7,900 -1,200 Descending Los Angeles Center
11:30AM 34.0667 -117.2667 164° South 225 259 5,900 -1,620 Descending Southern California TRACON
11:31AM 34.0333 -117.3000 220° Southwest 211 243 4,300 -840 Descending Southern California TRACON
11:32AM 34.0500 -117.3500 292° West 188 216 4,300 -360 Level Southern California TRACON
11:33AM 34.0500 -117.4167 270° West 185 213 3,600 -780 Descending Southern California TRACON
11:34AM 34.0500 -117.4667 270° West 170 196 2,800 -900 Descending Southern California TRACON
11:35AM 34.0500 -117.5167 270° West 147 169 2,000 -780 Descending Southern California TRACON
11:36AM 34.0500 -117.5667 270° West 133 153 1,300 -720 Descending Southern California TRACON